sensor_id;sensor_type;location;lat;lon;timestamp;pressure;altitude;pressure_sealevel;temperature;humidity
40954;BME280;26686;50.130;8.710;2023-04-15T00:04:38;99254.78;;;10.58;56.09
40954;BME280;26686;50.130;8.710;2023-04-15T00:09:41;99266.09;;;10.60;56.55
40954;BME280;26686;50.130;8.710;2023-04-15T00:14:42;99264.19;;;10.53;56.86
40954;BME280;26686;50.130;8.710;2023-04-15T00:19:45;99260.13;;;10.49;57.17
40954;BME280;26686;50.130;8.710;2023-04-15T00:24:46;99253.19;;;10.38;57.11
40954;BME280;26686;50.130;8.710;2023-04-15T00:29:47;99252.91;;;10.41;57.37
40954;BME280;26686;50.130;8.710;2023-04-15T00:34:49;99247.88;;;10.38;57.41
40954;BME280;26686;50.130;8.710;2023-04-15T00:39:51;99249.13;;;10.34;57.69
40954;BME280;26686;50.130;8.710;2023-04-15T00:44:52;99245.22;;;10.28;57.54
40954;BME280;26686;50.130;8.710;2023-04-15T00:49:53;99231.25;;;10.16;57.88
40954;BME280;26686;50.130;8.710;2023-04-15T00:54:55;99234.63;;;10.18;57.80
40954;BME280;26686;50.130;8.710;2023-04-15T00:59:56;99234.50;;;10.10;57.78
40954;BME280;26686;50.130;8.710;2023-04-15T01:04:58;99237.59;;;10.05;57.55
40954;BME280;26686;50.130;8.710;2023-04-15T01:09:59;99228.66;;;9.97;57.54
40954;BME280;26686;50.130;8.710;2023-04-15T01:15:01;99234.41;;;10.02;57.72
40954;BME280;26686;50.130;8.710;2023-04-15T01:20:03;99235.94;;;9.95;57.70
40954;BME280;26686;50.130;8.710;2023-04-15T01:25:11;99237.63;;;9.96;57.78
40954;BME280;26686;50.130;8.710;2023-04-15T01:30:12;99239.59;;;9.94;57.55
40954;BME280;26686;50.130;8.710;2023-04-15T01:35:14;99245.19;;;9.90;57.79
40954;BME280;26686;50.130;8.710;2023-04-15T01:40:15;99230.97;;;9.82;57.24
40954;BME280;26686;50.130;8.710;2023-04-15T01:45:16;99240.75;;;9.81;57.20
40954;BME280;26686;50.130;8.710;2023-04-15T01:50:18;99234.31;;;9.84;57.30
40954;BME280;26686;50.130;8.710;2023-04-15T01:55:20;99223.69;;;9.84;57.34
40954;BME280;26686;50.130;8.710;2023-04-15T02:00:22;99229.81;;;9.84;57.42
40954;BME280;26686;50.130;8.710;2023-04-15T02:05:24;99233.47;;;9.83;57.29
40954;BME280;26686;50.130;8.710;2023-04-15T02:10:25;99240.44;;;9.84;57.43
40954;BME280;26686;50.130;8.710;2023-04-15T02:15:27;99246.91;;;9.82;57.34
40954;BME280;26686;50.130;8.710;2023-04-15T02:20:29;99249.69;;;9.80;57.58
40954;BME280;26686;50.130;8.710;2023-04-15T02:25:31;99241.16;;;9.77;57.87
40954;BME280;26686;50.130;8.710;2023-04-15T02:30:32;99247.16;;;9.79;58.15
40954;BME280;26686;50.130;8.710;2023-04-15T02:35:34;99239.78;;;9.72;58.15
40954;BME280;26686;50.130;8.710;2023-04-15T02:40:38;99245.09;;;9.72;58.37
40954;BME280;26686;50.130;8.710;2023-04-15T02:45:39;99245.66;;;9.66;58.40
40954;BME280;26686;50.130;8.710;2023-04-15T02:50:44;99235.75;;;9.59;58.61
40954;BME280;26686;50.130;8.710;2023-04-15T02:55:46;99246.66;;;9.55;58.93
40954;BME280;26686;50.130;8.710;2023-04-15T03:00:48;99236.88;;;9.46;59.01
40954;BME280;26686;50.130;8.710;2023-04-15T03:05:51;99241.38;;;9.46;58.96
40954;BME280;26686;50.130;8.710;2023-04-15T03:10:52;99253.78;;;9.45;59.42
40954;BME280;26686;50.130;8.710;2023-04-15T03:15:54;99251.69;;;9.39;59.75
40954;BME280;26686;50.130;8.710;2023-04-15T03:20:55;99240.81;;;9.42;59.50
40954;BME280;26686;50.130;8.710;2023-04-15T03:26:00;99247.38;;;9.38;60.02
40954;BME280;26686;50.130;8.710;2023-04-15T03:31:01;99243.06;;;9.37;60.36
40954;BME280;26686;50.130;8.710;2023-04-15T03:36:03;99239.56;;;9.27;60.91
40954;BME280;26686;50.130;8.710;2023-04-15T03:41:04;99239.69;;;9.25;61.89
40954;BME280;26686;50.130;8.710;2023-04-15T03:46:06;99233.28;;;9.28;61.71
40954;BME280;26686;50.130;8.710;2023-04-15T03:51:08;99233.53;;;9.25;61.87
40954;BME280;26686;50.130;8.710;2023-04-15T03:56:09;99225.16;;;9.19;62.15
40954;BME280;26686;50.130;8.710;2023-04-15T04:01:11;99227.94;;;9.18;61.54
40954;BME280;26686;50.130;8.710;2023-04-15T04:06:13;99231.44;;;9.18;61.52
40954;BME280;26686;50.130;8.710;2023-04-15T04:11:15;99223.19;;;9.12;61.06
40954;BME280;26686;50.130;8.710;2023-04-15T04:16:17;99229.91;;;9.06;60.98
40954;BME280;26686;50.130;8.710;2023-04-15T04:21:18;99233.66;;;9.03;61.72
40954;BME280;26686;50.130;8.710;2023-04-15T04:26:21;99237.59;;;8.99;61.68
40954;BME280;26686;50.130;8.710;2023-04-15T04:31:23;99228.34;;;8.94;62.08
40954;BME280;26686;50.130;8.710;2023-04-15T04:36:24;99235.34;;;8.95;61.88
40954;BME280;26686;50.130;8.710;2023-04-15T04:41:26;99236.88;;;8.97;62.40
40954;BME280;26686;50.130;8.710;2023-04-15T04:46:28;99245.25;;;8.93;62.38
40954;BME280;26686;50.130;8.710;2023-04-15T04:51:30;99240.63;;;8.85;62.74
40954;BME280;26686;50.130;8.710;2023-04-15T04:56:31;99242.88;;;8.90;62.98
40954;BME280;26686;50.130;8.710;2023-04-15T05:01:34;99242.88;;;8.90;63.06
40954;BME280;26686;50.130;8.710;2023-04-15T05:06:36;99246.25;;;8.92;63.34
40954;BME280;26686;50.130;8.710;2023-04-15T05:11:37;99262.28;;;8.90;63.65
40954;BME280;26686;50.130;8.710;2023-04-15T05:16:38;99248.31;;;8.78;63.51
40954;BME280;26686;50.130;8.710;2023-04-15T05:21:40;99264.25;;;8.78;64.28
40954;BME280;26686;50.130;8.710;2023-04-15T05:26:41;99260.16;;;8.74;64.32
40954;BME280;26686;50.130;8.710;2023-04-15T05:31:43;99274.31;;;8.84;64.27
40954;BME280;26686;50.130;8.710;2023-04-15T05:36:45;99279.88;;;8.91;64.11
40954;BME280;26686;50.130;8.710;2023-04-15T05:41:46;99289.13;;;8.97;64.16
40954;BME280;26686;50.130;8.710;2023-04-15T05:46:48;99287.03;;;9.00;63.99
40954;BME280;26686;50.130;8.710;2023-04-15T05:51:49;99282.69;;;8.90;63.98
40954;BME280;26686;50.130;8.710;2023-04-15T05:56:50;99290.38;;;8.93;64.17
40954;BME280;26686;50.130;8.710;2023-04-15T06:01:52;99284.66;;;8.97;64.38
40954;BME280;26686;50.130;8.710;2023-04-15T06:06:53;99291.66;;;9.08;63.98
40954;BME280;26686;50.130;8.710;2023-04-15T06:11:55;99285.94;;;9.13;64.12
40954;BME280;26686;50.130;8.710;2023-04-15T06:16:57;99290.84;;;9.27;63.50
40954;BME280;26686;50.130;8.710;2023-04-15T06:21:59;99299.38;;;9.41;62.90
40954;BME280;26686;50.130;8.710;2023-04-15T06:27:01;99302.59;;;9.54;62.00
40954;BME280;26686;50.130;8.710;2023-04-15T06:32:02;99305.94;;;9.66;61.90
40954;BME280;26686;50.130;8.710;2023-04-15T06:37:03;99307.34;;;9.70;61.57
40954;BME280;26686;50.130;8.710;2023-04-15T06:42:06;99304.25;;;9.84;61.40
40954;BME280;26686;50.130;8.710;2023-04-15T06:47:08;99309.00;;;9.90;61.80
40954;BME280;26686;50.130;8.710;2023-04-15T06:52:10;99306.19;;;10.02;61.87
40954;BME280;26686;50.130;8.710;2023-04-15T06:57:11;99313.44;;;10.19;61.52
40954;BME280;26686;50.130;8.710;2023-04-15T07:02:13;99325.16;;;10.26;61.40
40954;BME280;26686;50.130;8.710;2023-04-15T07:07:14;99316.47;;;10.34;60.97
40954;BME280;26686;50.130;8.710;2023-04-15T07:12:17;99324.00;;;10.49;61.07
40954;BME280;26686;50.130;8.710;2023-04-15T07:17:19;99320.00;;;10.63;60.94
40954;BME280;26686;50.130;8.710;2023-04-15T07:22:20;99324.03;;;10.76;60.78
40954;BME280;26686;50.130;8.710;2023-04-15T07:27:21;99317.47;;;10.71;61.03
40954;BME280;26686;50.130;8.710;2023-04-15T07:32:23;99318.84;;;10.75;60.78
40954;BME280;26686;50.130;8.710;2023-04-15T07:37:24;99325.53;;;10.79;60.92
40954;BME280;26686;50.130;8.710;2023-04-15T07:42:25;99324.13;;;10.85;60.64
40954;BME280;26686;50.130;8.710;2023-04-15T07:47:27;99337.09;;;10.98;61.17
40954;BME280;26686;50.130;8.710;2023-04-15T07:52:29;99330.94;;;11.15;60.13
40954;BME280;26686;50.130;8.710;2023-04-15T07:57:30;99332.97;;;11.31;59.51
40954;BME280;26686;50.130;8.710;2023-04-15T08:02:32;99330.97;;;11.51;59.07
40954;BME280;26686;50.130;8.710;2023-04-15T08:07:34;99336.25;;;11.61;58.66
40954;BME280;26686;50.130;8.710;2023-04-15T08:12:36;99337.63;;;11.65;58.86
40954;BME280;26686;50.130;8.710;2023-04-15T08:17:38;99339.22;;;11.76;58.38
40954;BME280;26686;50.130;8.710;2023-04-15T08:22:39;99337.22;;;11.78;57.63
40954;BME280;26686;50.130;8.710;2023-04-15T08:27:41;99333.75;;;11.95;56.90
40954;BME280;26686;50.130;8.710;2023-04-15T08:32:46;99344.16;;;12.07;55.55
40954;BME280;26686;50.130;8.710;2023-04-15T08:37:47;99345.28;;;12.22;54.44
40954;BME280;26686;50.130;8.710;2023-04-15T08:42:52;99340.56;;;12.42;53.17
40954;BME280;26686;50.130;8.710;2023-04-15T08:47:55;99329.31;;;12.57;52.75
40954;BME280;26686;50.130;8.710;2023-04-15T08:53:00;99336.84;;;12.69;51.61
40954;BME280;26686;50.130;8.710;2023-04-15T08:58:02;99344.63;;;12.54;52.93
40954;BME280;26686;50.130;8.710;2023-04-15T09:03:04;99326.16;;;12.61;52.04
40954;BME280;26686;50.130;8.710;2023-04-15T09:08:07;99342.13;;;12.87;50.73
40954;BME280;26686;50.130;8.710;2023-04-15T09:13:08;99340.75;;;12.83;50.52
40954;BME280;26686;50.130;8.710;2023-04-15T09:18:11;99344.13;;;12.94;50.27
40954;BME280;26686;50.130;8.710;2023-04-15T09:23:14;99349.38;;;13.12;49.66
40954;BME280;26686;50.130;8.710;2023-04-15T09:28:23;99357.28;;;13.21;49.56
40954;BME280;26686;50.130;8.710;2023-04-15T09:33:26;99362.03;;;13.01;49.65
40954;BME280;26686;50.130;8.710;2023-04-15T09:38:28;99368.00;;;12.95;50.55
40954;BME280;26686;50.130;8.710;2023-04-15T09:43:37;99367.50;;;12.91;49.44
40954;BME280;26686;50.130;8.710;2023-04-15T09:48:39;99380.03;;;12.91;49.37
40954;BME280;26686;50.130;8.710;2023-04-15T09:53:41;99369.47;;;12.81;49.44
40954;BME280;26686;50.130;8.710;2023-04-15T09:58:42;99385.00;;;12.86;49.75
40954;BME280;26686;50.130;8.710;2023-04-15T10:03:45;99377.56;;;12.71;49.72
40954;BME280;26686;50.130;8.710;2023-04-15T10:08:47;99389.53;;;12.59;50.14
40954;BME280;26686;50.130;8.710;2023-04-15T10:13:50;99399.41;;;12.67;49.27
40954;BME280;26686;50.130;8.710;2023-04-15T10:18:54;99409.50;;;12.73;49.05
40954;BME280;26686;50.130;8.710;2023-04-15T10:23:57;99407.19;;;12.86;49.34
40954;BME280;26686;50.130;8.710;2023-04-15T10:28:59;99421.84;;;13.08;49.30
40954;BME280;26686;50.130;8.710;2023-04-15T10:34:01;99418.25;;;13.26;48.99
40954;BME280;26686;50.130;8.710;2023-04-15T10:39:43;99418.22;;;13.69;48.37
40954;BME280;26686;50.130;8.710;2023-04-15T10:44:50;99430.31;;;13.81;48.08
40954;BME280;26686;50.130;8.710;2023-04-15T10:50:00;99423.78;;;13.75;48.64
40954;BME280;26686;50.130;8.710;2023-04-15T10:55:12;99429.56;;;13.63;48.83
40954;BME280;26686;50.130;8.710;2023-04-15T11:00:15;99428.69;;;13.46;49.56
40954;BME280;26686;50.130;8.710;2023-04-15T11:05:18;99444.31;;;13.32;50.33
40954;BME280;26686;50.130;8.710;2023-04-15T11:15:41;99441.78;;;13.73;52.38
40954;BME280;26686;50.130;8.710;2023-04-15T11:20:45;99445.56;;;14.05;52.90
40954;BME280;26686;50.130;8.710;2023-04-15T11:25:47;99451.22;;;13.86;54.28
40954;BME280;26686;50.130;8.710;2023-04-15T11:30:49;99450.97;;;13.63;55.41
40954;BME280;26686;50.130;8.710;2023-04-15T11:35:53;99471.81;;;13.42;58.50
40954;BME280;26686;50.130;8.710;2023-04-15T11:40:55;99472.53;;;13.26;58.98
40954;BME280;26686;50.130;8.710;2023-04-15T11:46:01;99481.97;;;13.13;60.43
40954;BME280;26686;50.130;8.710;2023-04-15T11:51:04;99486.66;;;13.11;62.22
40954;BME280;26686;50.130;8.710;2023-04-15T11:56:11;99479.16;;;13.14;63.07
40954;BME280;26686;50.130;8.710;2023-04-15T12:01:17;99493.72;;;13.20;64.30
40954;BME280;26686;50.130;8.710;2023-04-15T12:06:31;99500.72;;;13.21;65.44
40954;BME280;26686;50.130;8.710;2023-04-15T12:11:39;99507.41;;;13.17;65.28
40954;BME280;26686;50.130;8.710;2023-04-15T12:16:43;99521.41;;;13.11;66.51
40954;BME280;26686;50.130;8.710;2023-04-15T12:21:52;99533.53;;;13.05;66.77
40954;BME280;26686;50.130;8.710;2023-04-15T12:26:54;99537.00;;;12.97;68.41
40954;BME280;26686;50.130;8.710;2023-04-15T12:32:04;99547.00;;;12.95;67.57
40954;BME280;26686;50.130;8.710;2023-04-15T12:37:07;99536.25;;;12.87;69.62
40954;BME280;26686;50.130;8.710;2023-04-15T12:42:14;99548.41;;;12.81;68.90
40954;BME280;26686;50.130;8.710;2023-04-15T12:47:16;99565.41;;;12.62;70.50
40954;BME280;26686;50.130;8.710;2023-04-15T12:52:19;99562.84;;;12.34;70.49
40954;BME280;26686;50.130;8.710;2023-04-15T12:57:21;99573.34;;;12.18;71.61
40954;BME280;26686;50.130;8.710;2023-04-15T13:02:22;99563.88;;;12.06;70.34
40954;BME280;26686;50.130;8.710;2023-04-15T13:07:25;99577.69;;;11.91;71.87
40954;BME280;26686;50.130;8.710;2023-04-15T13:12:27;99590.75;;;11.94;72.79
40954;BME280;26686;50.130;8.710;2023-04-15T13:17:28;99584.63;;;12.12;70.77
40954;BME280;26686;50.130;8.710;2023-04-15T13:22:30;99581.66;;;12.15;71.07
40954;BME280;26686;50.130;8.710;2023-04-15T13:27:31;99588.75;;;12.24;69.12
40954;BME280;26686;50.130;8.710;2023-04-15T13:32:33;99582.41;;;12.07;70.17
40954;BME280;26686;50.130;8.710;2023-04-15T13:37:35;99596.41;;;11.81;68.58
40954;BME280;26686;50.130;8.710;2023-04-15T13:42:36;99592.69;;;11.64;69.39
40954;BME280;26686;50.130;8.710;2023-04-15T13:47:37;99594.16;;;11.49;68.58
40954;BME280;26686;50.130;8.710;2023-04-15T13:52:39;99593.84;;;11.52;70.11
40954;BME280;26686;50.130;8.710;2023-04-15T13:57:40;99600.06;;;11.43;70.36
40954;BME280;26686;50.130;8.710;2023-04-15T14:02:42;99600.97;;;11.14;71.33
40954;BME280;26686;50.130;8.710;2023-04-15T14:07:43;99611.00;;;11.40;72.71
40954;BME280;26686;50.130;8.710;2023-04-15T14:12:45;99617.91;;;11.70;72.80
40954;BME280;26686;50.130;8.710;2023-04-15T14:17:46;99617.31;;;11.86;71.57
40954;BME280;26686;50.130;8.710;2023-04-15T14:22:48;99634.72;;;11.80;71.80
40954;BME280;26686;50.130;8.710;2023-04-15T14:27:49;99634.34;;;11.65;71.13
40954;BME280;26686;50.130;8.710;2023-04-15T14:32:51;99636.16;;;11.75;70.75
40954;BME280;26686;50.130;8.710;2023-04-15T14:37:53;99643.41;;;11.82;70.89
40954;BME280;26686;50.130;8.710;2023-04-15T14:42:54;99654.06;;;11.82;72.08
40954;BME280;26686;50.130;8.710;2023-04-15T14:47:56;99645.03;;;11.65;71.60
40954;BME280;26686;50.130;8.710;2023-04-15T14:52:58;99661.81;;;11.76;71.50
40954;BME280;26686;50.130;8.710;2023-04-15T14:57:59;99671.16;;;11.52;73.67
40954;BME280;26686;50.130;8.710;2023-04-15T15:03:02;99677.44;;;11.51;73.73
40954;BME280;26686;50.130;8.710;2023-04-15T15:08:05;99684.78;;;11.29;73.32
40954;BME280;26686;50.130;8.710;2023-04-15T15:13:08;99697.66;;;11.44;74.93
40954;BME280;26686;50.130;8.710;2023-04-15T15:18:10;99690.09;;;11.39;75.26
40954;BME280;26686;50.130;8.710;2023-04-15T15:23:12;99694.59;;;11.39;75.61
40954;BME280;26686;50.130;8.710;2023-04-15T15:28:13;99697.13;;;11.40;75.18
40954;BME280;26686;50.130;8.710;2023-04-15T15:33:14;99696.03;;;11.23;74.21
40954;BME280;26686;50.130;8.710;2023-04-15T15:38:16;99707.09;;;11.28;76.54
40954;BME280;26686;50.130;8.710;2023-04-15T15:43:17;99704.28;;;11.30;75.08
40954;BME280;26686;50.130;8.710;2023-04-15T15:48:19;99715.06;;;11.28;76.73
40954;BME280;26686;50.130;8.710;2023-04-15T15:53:20;99715.06;;;11.28;75.40
40954;BME280;26686;50.130;8.710;2023-04-15T15:58:24;99723.38;;;11.16;78.08
40954;BME280;26686;50.130;8.710;2023-04-15T16:03:25;99740.88;;;11.08;78.56
40954;BME280;26686;50.130;8.710;2023-04-15T16:08:27;99734.97;;;11.05;78.42
40954;BME280;26686;50.130;8.710;2023-04-15T16:13:28;99744.53;;;11.17;78.88
40954;BME280;26686;50.130;8.710;2023-04-15T16:18:30;99747.91;;;11.19;78.41
40954;BME280;26686;50.130;8.710;2023-04-15T16:23:35;99752.38;;;11.28;77.50
40954;BME280;26686;50.130;8.710;2023-04-15T16:28:36;99765.84;;;11.27;77.94
40954;BME280;26686;50.130;8.710;2023-04-15T16:33:37;99760.94;;;11.22;78.27
40954;BME280;26686;50.130;8.710;2023-04-15T16:38:39;99768.06;;;11.12;78.16
40954;BME280;26686;50.130;8.710;2023-04-15T16:43:40;99772.72;;;11.10;80.00
40954;BME280;26686;50.130;8.710;2023-04-15T16:48:42;99776.75;;;11.04;80.47
40954;BME280;26686;50.130;8.710;2023-04-15T16:53:43;99783.22;;;11.11;80.11
40954;BME280;26686;50.130;8.710;2023-04-15T16:58:44;99791.03;;;11.03;80.19
40954;BME280;26686;50.130;8.710;2023-04-15T17:03:46;99798.72;;;10.77;82.28
40954;BME280;26686;50.130;8.710;2023-04-15T17:08:48;99797.88;;;10.86;80.97
40954;BME280;26686;50.130;8.710;2023-04-15T17:13:49;99798.84;;;10.85;81.59
40954;BME280;26686;50.130;8.710;2023-04-15T17:18:51;99807.16;;;10.92;81.43
40954;BME280;26686;50.130;8.710;2023-04-15T17:23:52;99824.28;;;10.99;81.16
40954;BME280;26686;50.130;8.710;2023-04-15T17:28:54;99834.47;;;10.84;81.24
40954;BME280;26686;50.130;8.710;2023-04-15T17:33:56;99837.28;;;10.92;80.88
40954;BME280;26686;50.130;8.710;2023-04-15T17:39:10;99844.88;;;10.97;80.76
40954;BME280;26686;50.130;8.710;2023-04-15T17:44:12;99841.91;;;10.90;80.58
40954;BME280;26686;50.130;8.710;2023-04-15T17:49:13;99863.09;;;11.02;80.26
40954;BME280;26686;50.130;8.710;2023-04-15T17:54:15;99862.25;;;11.01;80.83
40954;BME280;26686;50.130;8.710;2023-04-15T17:59:16;99884.94;;;10.95;81.07
40954;BME280;26686;50.130;8.710;2023-04-15T18:04:18;99880.88;;;10.91;81.75
40954;BME280;26686;50.130;8.710;2023-04-15T18:09:19;99881.84;;;10.90;81.68
40954;BME280;26686;50.130;8.710;2023-04-15T18:14:21;99898.00;;;10.99;81.54
40954;BME280;26686;50.130;8.710;2023-04-15T18:19:35;99892.78;;;10.87;82.18
40954;BME280;26686;50.130;8.710;2023-04-15T18:24:36;99921.13;;;10.98;82.41
40954;BME280;26686;50.130;8.710;2023-04-15T18:29:37;99922.97;;;10.98;81.81
40954;BME280;26686;50.130;8.710;2023-04-15T18:34:40;99925.88;;;10.94;82.99
40954;BME280;26686;50.130;8.710;2023-04-15T18:39:42;99924.28;;;10.82;83.51
40954;BME280;26686;50.130;8.710;2023-04-15T18:44:44;99924.41;;;10.81;82.90
40954;BME280;26686;50.130;8.710;2023-04-15T18:49:45;99942.63;;;10.85;83.16
40954;BME280;26686;50.130;8.710;2023-04-15T18:54:47;99940.72;;;10.87;83.46
40954;BME280;26686;50.130;8.710;2023-04-15T18:59:48;99941.25;;;10.81;82.49
40954;BME280;26686;50.130;8.710;2023-04-15T19:04:49;99964.97;;;10.94;82.52
40954;BME280;26686;50.130;8.710;2023-04-15T19:09:51;99956.41;;;10.90;82.27
40954;BME280;26686;50.130;8.710;2023-04-15T19:14:53;99969.91;;;10.99;81.51
40954;BME280;26686;50.130;8.710;2023-04-15T19:19:54;99970.44;;;10.92;81.31
40954;BME280;26686;50.130;8.710;2023-04-15T19:24:56;99976.22;;;10.98;81.58
40954;BME280;26686;50.130;8.710;2023-04-15T19:29:58;99968.09;;;10.99;81.53
40954;BME280;26686;50.130;8.710;2023-04-15T19:34:59;99973.56;;;10.98;80.35
40954;BME280;26686;50.130;8.710;2023-04-15T19:40:01;99977.38;;;10.84;80.90
40954;BME280;26686;50.130;8.710;2023-04-15T19:45:02;99981.47;;;10.88;80.65
40954;BME280;26686;50.130;8.710;2023-04-15T19:50:05;100001.59;;;11.02;79.43
40954;BME280;26686;50.130;8.710;2023-04-15T19:55:07;99999.28;;;10.87;80.03
40954;BME280;26686;50.130;8.710;2023-04-15T20:00:09;99991.72;;;10.92;79.78
40954;BME280;26686;50.130;8.710;2023-04-15T20:05:11;99998.31;;;10.67;79.90
40954;BME280;26686;50.130;8.710;2023-04-15T20:10:13;99987.53;;;10.69;80.55
40954;BME280;26686;50.130;8.710;2023-04-15T20:15:14;99996.16;;;10.82;79.79
40954;BME280;26686;50.130;8.710;2023-04-15T20:20:16;100009.03;;;10.77;79.55
40954;BME280;26686;50.130;8.710;2023-04-15T20:25:17;100012.13;;;10.82;79.84
40954;BME280;26686;50.130;8.710;2023-04-15T20:30:19;100012.41;;;10.79;79.86
40954;BME280;26686;50.130;8.710;2023-04-15T20:35:20;100015.78;;;10.81;79.69
40954;BME280;26686;50.130;8.710;2023-04-15T20:40:22;100007.53;;;10.84;79.07
40954;BME280;26686;50.130;8.710;2023-04-15T20:45:23;100016.06;;;10.78;79.00
40954;BME280;26686;50.130;8.710;2023-04-15T20:50:25;100012.28;;;10.59;79.62
40954;BME280;26686;50.130;8.710;2023-04-15T20:55:26;100019.47;;;10.69;79.29
40954;BME280;26686;50.130;8.710;2023-04-15T21:00:30;100017.06;;;10.66;79.52
40954;BME280;26686;50.130;8.710;2023-04-15T21:05:33;100016.31;;;10.75;78.60
40954;BME280;26686;50.130;8.710;2023-04-15T21:10:34;100018.19;;;10.42;78.81
40954;BME280;26686;50.130;8.710;2023-04-15T21:15:36;100024.88;;;10.57;79.55
40954;BME280;26686;50.130;8.710;2023-04-15T21:20:37;100038.88;;;10.59;79.03
40954;BME280;26686;50.130;8.710;2023-04-15T21:25:38;100053.50;;;10.65;78.76
40954;BME280;26686;50.130;8.710;2023-04-15T21:30:40;100056.03;;;10.67;79.11
40954;BME280;26686;50.130;8.710;2023-04-15T21:35:41;100061.59;;;10.75;78.28
40954;BME280;26686;50.130;8.710;2023-04-15T21:40:42;100053.59;;;10.75;77.81
40954;BME280;26686;50.130;8.710;2023-04-15T21:45:44;100074.69;;;10.67;77.61
40954;BME280;26686;50.130;8.710;2023-04-15T21:51:06;100077.59;;;10.64;78.31
40954;BME280;26686;50.130;8.710;2023-04-15T21:56:08;100092.47;;;10.66;77.79
40954;BME280;26686;50.130;8.710;2023-04-15T22:01:09;100092.38;;;10.56;78.40
40954;BME280;26686;50.130;8.710;2023-04-15T22:06:11;100107.41;;;10.46;77.79
40954;BME280;26686;50.130;8.710;2023-04-15T22:11:18;100100.69;;;10.42;79.07
40954;BME280;26686;50.130;8.710;2023-04-15T22:16:27;100095.63;;;10.39;78.54
40954;BME280;26686;50.130;8.710;2023-04-15T22:21:28;100106.19;;;10.50;78.48
40954;BME280;26686;50.130;8.710;2023-04-15T22:26:30;100103.28;;;10.53;77.88
40954;BME280;26686;50.130;8.710;2023-04-15T22:31:31;100108.78;;;10.40;78.83
40954;BME280;26686;50.130;8.710;2023-04-15T22:36:33;100110.13;;;10.35;78.47
40954;BME280;26686;50.130;8.710;2023-04-15T22:41:34;100119.44;;;10.40;79.09
40954;BME280;26686;50.130;8.710;2023-04-15T22:46:36;100126.03;;;10.46;77.95
40954;BME280;26686;50.130;8.710;2023-04-15T22:51:38;100139.34;;;10.46;78.46
40954;BME280;26686;50.130;8.710;2023-04-15T22:56:39;100137.06;;;10.41;78.52
40954;BME280;26686;50.130;8.710;2023-04-15T23:01:41;100142.00;;;10.46;78.30
40954;BME280;26686;50.130;8.710;2023-04-15T23:06:42;100145.03;;;10.53;77.45
40954;BME280;26686;50.130;8.710;2023-04-15T23:11:44;100137.75;;;10.55;77.76
40954;BME280;26686;50.130;8.710;2023-04-15T23:16:45;100141.19;;;10.46;77.86
40954;BME280;26686;50.130;8.710;2023-04-15T23:21:47;100148.56;;;10.42;78.14
40954;BME280;26686;50.130;8.710;2023-04-15T23:26:48;100150.72;;;10.48;77.98
40954;BME280;26686;50.130;8.710;2023-04-15T23:31:50;100155.44;;;10.56;77.99
40954;BME280;26686;50.130;8.710;2023-04-15T23:36:51;100165.25;;;10.44;77.36
40954;BME280;26686;50.130;8.710;2023-04-15T23:41:52;100155.81;;;10.40;78.56
40954;BME280;26686;50.130;8.710;2023-04-15T23:46:54;100151.00;;;10.34;77.92
40954;BME280;26686;50.130;8.710;2023-04-15T23:51:55;100166.97;;;10.34;78.35
40954;BME280;26686;50.130;8.710;2023-04-15T23:56:57;100164.41;;;10.43;78.32
